createdAt,value
2023-03-20T00:00:39.890Z,999.70
2023-03-20T00:01:39.892Z,999.70
2023-03-20T00:02:39.902Z,999.71
2023-03-20T00:03:39.893Z,999.67
2023-03-20T00:04:39.959Z,999.75
2023-03-20T00:05:39.889Z,999.72
2023-03-20T00:06:39.888Z,999.77
2023-03-20T00:07:39.867Z,999.74
2023-03-20T00:08:39.884Z,999.82
2023-03-20T00:09:39.853Z,999.78
2023-03-20T00:10:39.822Z,999.83
2023-03-20T00:11:39.845Z,999.80
2023-03-20T00:12:39.823Z,999.84
2023-03-20T00:13:39.806Z,999.77
2023-03-20T00:14:39.834Z,999.85
2023-03-20T00:15:39.879Z,999.85
2023-03-20T00:16:39.784Z,999.79
2023-03-20T00:17:39.797Z,999.85
2023-03-20T00:18:39.798Z,999.79
2023-03-20T00:19:39.795Z,999.87
2023-03-20T00:20:39.898Z,999.86
2023-03-20T00:21:39.784Z,999.84
2023-03-20T00:22:39.769Z,999.85
2023-03-20T00:23:39.792Z,999.84
2023-03-20T00:24:39.764Z,999.91
2023-03-20T00:25:39.800Z,999.88
2023-03-20T00:26:39.775Z,999.90
2023-03-20T00:27:39.754Z,999.95
2023-03-20T00:28:39.721Z,999.98
2023-03-20T00:29:39.707Z,999.92
2023-03-20T00:30:39.689Z,999.95
2023-03-20T00:31:39.763Z,999.96
2023-03-20T00:32:39.687Z,999.95
2023-03-20T00:33:39.667Z,999.99
2023-03-20T00:34:39.688Z,999.96
2023-03-20T00:35:39.700Z,999.94
2023-03-20T00:36:39.668Z,1000.00
2023-03-20T00:37:39.652Z,999.91
2023-03-20T00:38:39.649Z,999.92
2023-03-20T00:39:39.630Z,999.93
2023-03-20T00:40:39.640Z,999.90
2023-03-20T00:41:39.664Z,999.89
2023-03-20T00:42:39.638Z,999.91
2023-03-20T00:43:39.593Z,999.92
2023-03-20T00:44:42.074Z,999.91
2023-03-20T00:45:40.606Z,999.87
2023-03-20T00:46:39.701Z,999.88
2023-03-20T00:47:39.604Z,999.88
2023-03-20T00:48:39.601Z,999.89
2023-03-20T00:49:39.555Z,999.94
2023-03-20T00:50:39.565Z,999.92
2023-03-20T00:51:39.608Z,999.94
2023-03-20T00:52:39.602Z,999.89
2023-03-20T00:53:39.748Z,999.90
2023-03-20T00:54:39.529Z,999.92
2023-03-20T00:55:39.521Z,999.90
2023-03-20T00:56:39.577Z,999.88
2023-03-20T00:57:39.531Z,999.87
2023-03-20T00:58:39.526Z,999.92
2023-03-20T00:59:39.543Z,999.90
2023-03-20T01:00:39.583Z,999.85
2023-03-20T01:01:39.593Z,999.88
2023-03-20T01:02:39.486Z,999.89
2023-03-20T01:03:40.779Z,999.90
2023-03-20T01:05:15.037Z,999.92
2023-03-20T01:05:39.506Z,999.87
2023-03-20T01:07:14.497Z,999.91
2023-03-20T01:07:39.517Z,999.95
2023-03-20T01:08:39.464Z,999.93
2023-03-20T01:09:39.492Z,999.89
2023-03-20T01:10:40.248Z,999.97
2023-03-20T01:11:39.435Z,999.95
2023-03-20T01:12:39.505Z,999.90
2023-03-20T01:13:39.435Z,1000.00
2023-03-20T01:14:39.433Z,999.95
2023-03-20T01:15:39.394Z,1000.00
2023-03-20T01:16:39.453Z,1000.00
2023-03-20T01:17:39.427Z,999.96
2023-03-20T01:18:39.395Z,999.96
2023-03-20T01:19:39.491Z,999.92
2023-03-20T01:20:39.398Z,999.94
2023-03-20T01:21:39.442Z,999.89
2023-03-20T01:22:39.357Z,999.90
2023-03-20T01:23:39.338Z,999.88
2023-03-20T01:24:40.793Z,999.93
2023-03-20T01:25:40.356Z,999.92
2023-03-20T01:26:39.337Z,999.93
2023-03-20T01:27:39.298Z,999.93
2023-03-20T01:28:39.315Z,999.91
2023-03-20T01:29:39.353Z,999.89
2023-03-20T01:30:39.312Z,999.89
2023-03-20T01:31:39.943Z,999.92
2023-03-20T01:32:39.381Z,999.92
2023-03-20T01:33:39.442Z,999.92
2023-03-20T01:34:39.347Z,999.89
2023-03-20T01:35:39.306Z,999.89
2023-03-20T01:36:39.312Z,999.93
2023-03-20T01:37:39.245Z,999.83
2023-03-20T01:38:39.227Z,999.86
2023-03-20T01:39:39.235Z,999.91
2023-03-20T01:40:39.277Z,999.84
2023-03-20T01:41:39.212Z,999.86
2023-03-20T01:42:39.911Z,999.86
2023-03-20T01:43:39.211Z,999.89
2023-03-20T01:44:39.347Z,999.90
2023-03-20T01:45:39.377Z,999.92
2023-03-20T01:46:39.239Z,999.89
2023-03-20T01:47:39.215Z,999.86
2023-03-20T01:48:39.233Z,999.85
2023-03-20T01:49:39.191Z,999.87
2023-03-20T01:50:39.185Z,999.87
2023-03-20T01:51:40.182Z,999.92
2023-03-20T01:52:39.211Z,1000.02
2023-03-20T01:53:39.157Z,999.97
2023-03-20T01:54:39.244Z,999.97
2023-03-20T01:55:39.136Z,1000.00
2023-03-20T01:56:39.167Z,999.96
2023-03-20T01:57:39.147Z,999.95
2023-03-20T01:58:39.132Z,999.99
2023-03-20T01:59:39.142Z,999.97
2023-03-20T02:00:39.147Z,1000.01
2023-03-20T02:01:39.136Z,1000.02
2023-03-20T02:02:39.106Z,999.99
2023-03-20T02:03:39.065Z,1000.02
2023-03-20T02:04:39.108Z,999.97
2023-03-20T02:05:39.062Z,1000.02
2023-03-20T02:06:39.044Z,1000.07
2023-03-20T02:07:39.094Z,1000.03
2023-03-20T02:08:39.041Z,1000.08
2023-03-20T02:09:39.030Z,1000.04
2023-03-20T02:10:39.021Z,1000.07
2023-03-20T02:11:39.023Z,1000.07
2023-03-20T02:12:39.022Z,1000.07
2023-03-20T02:13:39.034Z,1000.06
2023-03-20T02:14:38.999Z,1000.10
2023-03-20T02:15:39.008Z,1000.10
2023-03-20T02:16:39.063Z,1000.05
2023-03-20T02:17:39.048Z,1000.06
2023-03-20T02:18:39.036Z,1000.13
2023-03-20T02:19:38.984Z,1000.15
2023-03-20T02:20:38.940Z,1000.18
2023-03-20T02:21:39.982Z,1000.18
2023-03-20T02:22:38.986Z,1000.12
2023-03-20T02:23:38.992Z,1000.15
2023-03-20T02:24:38.959Z,1000.13
2023-03-20T02:25:38.932Z,1000.14
2023-03-20T02:26:38.917Z,1000.09
2023-03-20T02:27:38.936Z,1000.11
2023-03-20T02:28:38.893Z,1000.06
2023-03-20T02:29:38.888Z,1000.01
2023-03-20T02:30:39.015Z,999.92
2023-03-20T02:31:38.863Z,999.95
2023-03-20T02:32:38.960Z,1000.00
2023-03-20T02:33:38.862Z,1000.01
2023-03-20T02:34:38.888Z,999.99
2023-03-20T02:35:39.166Z,1000.05
2023-03-20T02:36:38.932Z,1000.13
2023-03-20T02:37:38.853Z,1000.07
2023-03-20T02:38:38.821Z,1000.10
2023-03-20T02:39:38.866Z,1000.13
2023-03-20T02:40:38.820Z,1000.08
2023-03-20T02:41:38.862Z,1000.09
2023-03-20T02:42:38.785Z,1000.10
2023-03-20T02:43:38.836Z,1000.13
2023-03-20T02:44:38.785Z,1000.14
2023-03-20T02:45:38.795Z,1000.12
2023-03-20T02:46:38.828Z,1000.18
2023-03-20T02:47:38.783Z,1000.14
2023-03-20T02:48:38.767Z,1000.17
2023-03-20T02:49:38.758Z,1000.21
2023-03-20T02:50:38.788Z,1000.22
2023-03-20T02:51:38.766Z,1000.27
2023-03-20T02:52:38.742Z,1000.24
2023-03-20T02:53:38.772Z,1000.24
2023-03-20T02:54:39.737Z,1000.24
2023-03-20T02:55:38.740Z,1000.23
2023-03-20T02:56:38.760Z,1000.24
2023-03-20T02:57:38.717Z,1000.23
2023-03-20T02:58:38.695Z,1000.24
2023-03-20T02:59:38.723Z,1000.30
2023-03-20T03:00:38.693Z,1000.28
2023-03-20T03:01:38.743Z,1000.23
2023-03-20T03:02:38.760Z,1000.32
2023-03-20T03:03:38.674Z,1000.35
2023-03-20T03:04:38.693Z,1000.38
2023-03-20T03:05:38.676Z,1000.36
2023-03-20T03:06:38.685Z,1000.36
2023-03-20T03:07:38.681Z,1000.34
2023-03-20T03:08:38.708Z,1000.37
2023-03-20T03:09:38.621Z,1000.32
2023-03-20T03:10:38.645Z,1000.34
2023-03-20T03:11:38.625Z,1000.34
2023-03-20T03:12:38.660Z,1000.32
2023-03-20T03:13:38.606Z,1000.35
2023-03-20T03:14:38.608Z,1000.30
2023-03-20T03:15:38.833Z,1000.37
2023-03-20T03:16:38.620Z,1000.40
2023-03-20T03:17:38.628Z,1000.42
2023-03-20T03:18:38.604Z,1000.42
2023-03-20T03:19:38.581Z,1000.43
2023-03-20T03:20:38.565Z,1000.44
2023-03-20T03:21:38.638Z,1000.43
2023-03-20T03:22:38.595Z,1000.40
2023-03-20T03:23:38.689Z,1000.43
2023-03-20T03:24:41.588Z,1000.43
2023-03-20T03:25:39.533Z,1000.40
2023-03-20T03:26:38.539Z,1000.42
2023-03-20T03:27:38.532Z,1000.38
2023-03-20T03:28:38.610Z,1000.38
2023-03-20T03:29:38.511Z,1000.41
2023-03-20T03:30:38.515Z,1000.38
2023-03-20T03:31:38.574Z,1000.37
2023-03-20T03:32:38.599Z,1000.38
2023-03-20T03:33:38.516Z,1000.33
2023-03-20T03:34:38.507Z,1000.35
2023-03-20T03:35:38.968Z,1000.33
2023-03-20T03:36:38.491Z,1000.37
2023-03-20T03:37:38.465Z,1000.34
2023-03-20T03:38:38.437Z,1000.35
2023-03-20T03:39:39.430Z,1000.36
2023-03-20T03:40:38.458Z,1000.38
2023-03-20T03:41:38.463Z,1000.31
2023-03-20T03:42:38.438Z,1000.34
2023-03-20T03:43:38.422Z,1000.30
2023-03-20T03:44:38.480Z,1000.31
2023-03-20T03:45:38.583Z,1000.32
2023-03-20T03:46:38.498Z,1000.34
2023-03-20T03:47:38.393Z,1000.31
2023-03-20T03:48:38.399Z,1000.31
2023-03-20T03:49:38.388Z,1000.32
2023-03-20T03:50:38.384Z,1000.39
2023-03-20T03:51:38.356Z,1000.31
2023-03-20T03:52:38.369Z,1000.36
2023-03-20T03:53:38.392Z,1000.38
2023-03-20T03:54:38.454Z,1000.34
2023-03-20T03:55:38.888Z,1000.35
2023-03-20T03:56:38.321Z,1000.38
2023-03-20T03:57:38.361Z,1000.38
2023-03-20T03:58:38.336Z,1000.38
2023-03-20T03:59:38.321Z,1000.35
2023-03-20T04:00:38.279Z,1000.40
2023-03-20T04:01:38.296Z,1000.46
2023-03-20T04:02:38.315Z,1000.48
2023-03-20T04:03:38.306Z,1000.53
2023-03-20T04:04:38.663Z,1000.51
2023-03-20T04:05:38.469Z,1000.59
2023-03-20T04:06:38.272Z,1000.57
2023-03-20T04:07:38.276Z,1000.59
2023-03-20T04:08:38.269Z,1000.54
2023-03-20T04:09:38.250Z,1000.57
2023-03-20T04:10:38.230Z,1000.57
2023-03-20T04:11:38.240Z,1000.56
2023-03-20T04:12:38.245Z,1000.63
2023-03-20T04:13:38.245Z,1000.62
2023-03-20T04:14:38.925Z,1000.63
2023-03-20T04:15:38.185Z,1000.68
2023-03-20T04:16:38.250Z,1000.63
2023-03-20T04:17:38.185Z,1000.64
2023-03-20T04:18:38.170Z,1000.65
2023-03-20T04:19:38.180Z,1000.65
2023-03-20T04:20:38.292Z,1000.62
2023-03-20T04:21:38.231Z,1000.68
2023-03-20T04:22:38.153Z,1000.62
2023-03-20T04:23:38.229Z,1000.63
2023-03-20T04:24:38.123Z,1000.69
2023-03-20T04:27:43.715Z,1000.65
2023-03-20T04:29:18.356Z,1000.63
